Agat, Guam
Current Conditions -  °F | °C
As of 9:54 PM on Wednesday 22 Oct 2014 (Local Time) from PGUM Reporting Station
Clear Clear  
Wind Chill: 80°   Ceiling: Unl
Heat Index: 85°   Visibility: 10mi
Dew Point: 76°   Wind: 0mph
Humidity: 87%   Direction: NA
Pressure: 29.84"   Gusts: NA
Location:  13.38°N, 144.65°E
Report Text: PGUM 221154Z 00000KT 10SM CLR 27/24 A2984 RMK AO2 SLP098 T02670244 10311 20261 51010
Loading
Personal Weather Stations






























Interactive Weather Map New forecast layout! Learn more

10-Day Weather Forecast

Advertisements
Track Severe Weather on mobile